sensor_id;sensor_type;location;lat;lon;timestamp;pressure;altitude;pressure_sealevel;temperature;humidity
51603;BME280;37954;51.980;5.850;2023-05-21T00:01:52;101579.66;;;15.51;61.85
51603;BME280;37954;51.980;5.850;2023-05-21T00:06:04;101585.09;;;15.62;61.73
51603;BME280;37954;51.980;5.850;2023-05-21T00:10:17;101578.84;;;15.62;61.75
51603;BME280;37954;51.980;5.850;2023-05-21T00:14:28;101576.63;;;15.71;61.82
51603;BME280;37954;51.980;5.850;2023-05-21T00:18:40;101569.19;;;15.78;61.50
51603;BME280;37954;51.980;5.850;2023-05-21T00:22:52;101564.81;;;15.77;61.80
51603;BME280;37954;51.980;5.850;2023-05-21T00:27:04;101560.00;;;15.79;61.63
51603;BME280;37954;51.980;5.850;2023-05-21T00:31:15;101554.34;;;15.80;61.87
51603;BME280;37954;51.980;5.850;2023-05-21T00:35:27;101555.16;;;15.81;61.78
51603;BME280;37954;51.980;5.850;2023-05-21T00:39:40;101555.16;;;15.81;62.22
51603;BME280;37954;51.980;5.850;2023-05-21T00:43:51;101538.31;;;15.79;62.24
51603;BME280;37954;51.980;5.850;2023-05-21T00:48:04;101544.09;;;15.82;62.16
51603;BME280;37954;51.980;5.850;2023-05-21T00:52:16;101540.81;;;15.80;62.20
51603;BME280;37954;51.980;5.850;2023-05-21T00:56:32;101532.09;;;15.78;62.42
51603;BME280;37954;51.980;5.850;2023-05-21T01:00:44;101534.56;;;15.80;62.30
51603;BME280;37954;51.980;5.850;2023-05-21T01:04:56;101525.41;;;15.69;62.82
51603;BME280;37954;51.980;5.850;2023-05-21T01:09:07;101538.72;;;15.71;62.92
51603;BME280;37954;51.980;5.850;2023-05-21T01:13:20;101534.81;;;15.66;62.95
51603;BME280;37954;51.980;5.850;2023-05-21T01:17:33;101543.88;;;15.72;63.05
51603;BME280;37954;51.980;5.850;2023-05-21T01:21:50;101531.06;;;15.68;63.32
51603;BME280;37954;51.980;5.850;2023-05-21T01:26:03;101522.09;;;15.67;63.42
51603;BME280;37954;51.980;5.850;2023-05-21T01:30:17;101522.34;;;15.65;63.86
51603;BME280;37954;51.980;5.850;2023-05-21T01:34:36;101512.91;;;15.68;63.68
51603;BME280;37954;51.980;5.850;2023-05-21T01:39:11;101510.69;;;15.65;63.89
51603;BME280;37954;51.980;5.850;2023-05-21T01:43:26;101514.69;;;15.62;64.22
51603;BME280;37954;51.980;5.850;2023-05-21T01:47:39;101519.03;;;15.63;64.21
51603;BME280;37954;51.980;5.850;2023-05-21T01:51:52;101512.13;;;15.56;64.68
51603;BME280;37954;51.980;5.850;2023-05-21T01:56:04;101505.63;;;15.57;64.44
51603;BME280;37954;51.980;5.850;2023-05-21T02:00:17;101511.88;;;15.57;64.72
51603;BME280;37954;51.980;5.850;2023-05-21T02:04:29;101495.94;;;15.49;64.87
51603;BME280;37954;51.980;5.850;2023-05-21T02:08:42;101504.06;;;15.49;65.02
51603;BME280;37954;51.980;5.850;2023-05-21T02:12:55;101495.00;;;15.44;65.34
51603;BME280;37954;51.980;5.850;2023-05-21T02:17:07;101496.28;;;15.41;65.37
51603;BME280;37954;51.980;5.850;2023-05-21T02:21:19;101497.03;;;15.37;65.88
51603;BME280;37954;51.980;5.850;2023-05-21T02:25:31;101486.78;;;15.39;65.79
51603;BME280;37954;51.980;5.850;2023-05-21T02:29:42;101496.78;;;15.38;66.02
51603;BME280;37954;51.980;5.850;2023-05-21T02:33:54;101490.09;;;15.41;66.00
51603;BME280;37954;51.980;5.850;2023-05-21T02:38:06;101497.38;;;15.40;66.21
51603;BME280;37954;51.980;5.850;2023-05-21T02:42:21;101506.06;;;15.42;66.28
51603;BME280;37954;51.980;5.850;2023-05-21T02:46:33;101494.41;;;15.42;66.19
51603;BME280;37954;51.980;5.850;2023-05-21T02:50:45;101489.97;;;15.36;66.32
51603;BME280;37954;51.980;5.850;2023-05-21T02:54:57;101490.53;;;15.26;66.86
51603;BME280;37954;51.980;5.850;2023-05-21T02:59:08;101493.59;;;15.29;66.77
51603;BME280;37954;51.980;5.850;2023-05-21T03:03:21;101482.31;;;15.21;66.84
51603;BME280;37954;51.980;5.850;2023-05-21T03:07:33;101483.03;;;15.16;67.19
51603;BME280;37954;51.980;5.850;2023-05-21T03:11:45;101490.31;;;15.16;67.54
51603;BME280;37954;51.980;5.850;2023-05-21T03:15:57;101479.84;;;15.19;67.36
51603;BME280;37954;51.980;5.850;2023-05-21T03:20:09;101476.91;;;15.21;67.20
51603;BME280;37954;51.980;5.850;2023-05-21T03:24:27;101481.25;;;15.22;67.29
51603;BME280;37954;51.980;5.850;2023-05-21T03:28:40;101473.97;;;15.22;67.88
51603;BME280;37954;51.980;5.850;2023-05-21T03:32:52;101479.72;;;15.26;67.48
51603;BME280;37954;51.980;5.850;2023-05-21T03:37:04;101473.00;;;15.28;67.42
51603;BME280;37954;51.980;5.850;2023-05-21T03:41:17;101475.47;;;15.30;67.42
51603;BME280;37954;51.980;5.850;2023-05-21T03:45:34;101462.66;;;15.25;67.43
51603;BME280;37954;51.980;5.850;2023-05-21T03:50:06;101469.63;;;15.21;67.96
51603;BME280;37954;51.980;5.850;2023-05-21T03:54:20;101465.25;;;15.20;68.44
51603;BME280;37954;51.980;5.850;2023-05-21T03:58:33;101469.72;;;15.26;68.41
51603;BME280;37954;51.980;5.850;2023-05-21T04:02:45;101447.59;;;15.18;68.39
51603;BME280;37954;51.980;5.850;2023-05-21T04:07:00;101479.00;;;15.30;68.59
51603;BME280;37954;51.980;5.850;2023-05-21T04:11:12;101470.53;;;15.27;68.69
51603;BME280;37954;51.980;5.850;2023-05-21T04:15:24;101478.19;;;15.30;69.02
51603;BME280;37954;51.980;5.850;2023-05-21T04:19:35;101473.13;;;15.33;68.76
51603;BME280;37954;51.980;5.850;2023-05-21T04:23:47;101482.06;;;15.34;69.11
51603;BME280;37954;51.980;5.850;2023-05-21T04:28:18;101479.97;;;15.36;69.00
51603;BME280;37954;51.980;5.850;2023-05-21T04:32:32;101483.03;;;15.40;68.92
51603;BME280;37954;51.980;5.850;2023-05-21T04:36:45;101491.97;;;15.40;69.20
51603;BME280;37954;51.980;5.850;2023-05-21T04:40:58;101492.19;;;15.39;69.19
51603;BME280;37954;51.980;5.850;2023-05-21T04:45:14;101487.13;;;15.42;69.48
51603;BME280;37954;51.980;5.850;2023-05-21T04:49:28;101483.56;;;15.42;69.65
51603;BME280;37954;51.980;5.850;2023-05-21T04:53:40;101491.00;;;15.46;69.57
51603;BME280;37954;51.980;5.850;2023-05-21T04:57:52;101483.81;;;15.52;69.54
51603;BME280;37954;51.980;5.850;2023-05-21T05:02:04;101491.88;;;15.58;69.74
51603;BME280;37954;51.980;5.850;2023-05-21T05:06:16;101483.34;;;15.55;69.78
51603;BME280;37954;51.980;5.850;2023-05-21T05:10:29;101489.38;;;15.57;69.90
51603;BME280;37954;51.980;5.850;2023-05-21T05:14:40;101484.66;;;15.52;70.35
51603;BME280;37954;51.980;5.850;2023-05-21T05:18:53;101480.53;;;15.61;70.50
51603;BME280;37954;51.980;5.850;2023-05-21T05:23:05;101476.66;;;15.57;70.54
51603;BME280;37954;51.980;5.850;2023-05-21T05:27:17;101471.34;;;15.62;70.57
51603;BME280;37954;51.980;5.850;2023-05-21T05:31:29;101478.41;;;15.75;70.61
51603;BME280;37954;51.980;5.850;2023-05-21T05:35:41;101483.66;;;15.82;70.28
51603;BME280;37954;51.980;5.850;2023-05-21T05:39:53;101486.50;;;15.87;70.20
51603;BME280;37954;51.980;5.850;2023-05-21T05:44:05;101485.66;;;15.86;70.27
51603;BME280;37954;51.980;5.850;2023-05-21T05:48:21;101482.97;;;15.86;70.52
51603;BME280;37954;51.980;5.850;2023-05-21T05:52:32;101489.63;;;15.95;70.53
51603;BME280;37954;51.980;5.850;2023-05-21T05:56:44;101485.63;;;15.98;70.42
51603;BME280;37954;51.980;5.850;2023-05-21T06:00:56;101465.00;;;15.97;70.24
51603;BME280;37954;51.980;5.850;2023-05-21T06:05:11;101475.13;;;16.01;70.33
51603;BME280;37954;51.980;5.850;2023-05-21T06:09:23;101465.59;;;15.99;70.11
51603;BME280;37954;51.980;5.850;2023-05-21T06:13:35;101473.94;;;16.09;70.08
51603;BME280;37954;51.980;5.850;2023-05-21T06:17:48;101477.50;;;16.26;70.01
51603;BME280;37954;51.980;5.850;2023-05-21T06:22:00;101471.94;;;16.50;69.60
51603;BME280;37954;51.980;5.850;2023-05-21T06:26:12;101483.28;;;16.75;68.99
51603;BME280;37954;51.980;5.850;2023-05-21T06:30:24;101484.25;;;17.02;68.30
51603;BME280;37954;51.980;5.850;2023-05-21T06:34:37;101480.94;;;17.34;67.53
51603;BME280;37954;51.980;5.850;2023-05-21T06:38:48;101487.19;;;17.73;66.33
51603;BME280;37954;51.980;5.850;2023-05-21T06:43:01;101488.41;;;17.82;65.74
51603;BME280;37954;51.980;5.850;2023-05-21T06:47:41;101485.56;;;18.21;64.82
51603;BME280;37954;51.980;5.850;2023-05-21T06:51:53;101493.16;;;18.99;63.61
51603;BME280;37954;51.980;5.850;2023-05-21T06:56:05;101472.09;;;19.27;61.21
51603;BME280;37954;51.980;5.850;2023-05-21T07:00:23;101483.06;;;19.94;60.26
51603;BME280;37954;51.980;5.850;2023-05-21T07:04:35;101472.59;;;20.84;57.50
51603;BME280;37954;51.980;5.850;2023-05-21T07:08:47;101475.22;;;21.60;55.59
51603;BME280;37954;51.980;5.850;2023-05-21T07:13:00;101463.22;;;22.94;53.41
51603;BME280;37954;51.980;5.850;2023-05-21T07:17:13;101461.88;;;23.20;50.34
51603;BME280;37954;51.980;5.850;2023-05-21T07:21:25;101459.41;;;23.18;49.79
51603;BME280;37954;51.980;5.850;2023-05-21T07:25:38;101437.75;;;23.41;49.37
51603;BME280;37954;51.980;5.850;2023-05-21T07:29:50;101462.34;;;23.51;48.38
51603;BME280;37954;51.980;5.850;2023-05-21T07:34:02;101466.41;;;23.30;48.26
51603;BME280;37954;51.980;5.850;2023-05-21T07:38:15;101457.47;;;23.72;47.95
51603;BME280;37954;51.980;5.850;2023-05-21T07:42:29;101451.81;;;23.82;47.18
51603;BME280;37954;51.980;5.850;2023-05-21T07:46:42;101449.53;;;24.08;46.88
51603;BME280;37954;51.980;5.850;2023-05-21T07:50:57;101461.78;;;24.15;46.25
51603;BME280;37954;51.980;5.850;2023-05-21T07:55:10;101449.94;;;24.20;46.31
51603;BME280;37954;51.980;5.850;2023-05-21T07:59:24;101445.91;;;24.50;45.74
51603;BME280;37954;51.980;5.850;2023-05-21T08:03:37;101444.38;;;24.25;45.83
51603;BME280;37954;51.980;5.850;2023-05-21T08:07:49;101432.09;;;24.55;45.38
51603;BME280;37954;51.980;5.850;2023-05-21T08:12:03;101445.03;;;24.54;45.17
51603;BME280;37954;51.980;5.850;2023-05-21T08:16:15;101430.13;;;24.74;45.11
51603;BME280;37954;51.980;5.850;2023-05-21T08:20:27;101429.25;;;24.92;44.90
51603;BME280;37954;51.980;5.850;2023-05-21T08:24:41;101440.13;;;25.57;44.09
51603;BME280;37954;51.980;5.850;2023-05-21T08:28:53;101443.25;;;25.92;43.33
51603;BME280;37954;51.980;5.850;2023-05-21T08:33:05;101446.03;;;25.64;42.43
51603;BME280;37954;51.980;5.850;2023-05-21T08:37:19;101441.78;;;26.08;42.50
51603;BME280;37954;51.980;5.850;2023-05-21T08:41:43;101434.00;;;26.68;41.92
51603;BME280;37954;51.980;5.850;2023-05-21T08:46:02;101444.13;;;27.35;40.78
51603;BME280;37954;51.980;5.850;2023-05-21T08:50:17;101427.69;;;27.30;39.84
51603;BME280;37954;51.980;5.850;2023-05-21T08:54:31;101429.75;;;27.16;39.72
51603;BME280;37954;51.980;5.850;2023-05-21T08:58:45;101435.28;;;27.16;39.48
51603;BME280;37954;51.980;5.850;2023-05-21T09:03:03;101443.31;;;27.43;39.53
51603;BME280;37954;51.980;5.850;2023-05-21T09:07:19;101431.22;;;27.22;39.43
51603;BME280;37954;51.980;5.850;2023-05-21T09:11:53;101432.78;;;27.54;39.31
51603;BME280;37954;51.980;5.850;2023-05-21T09:16:05;101435.56;;;27.54;39.24
51603;BME280;37954;51.980;5.850;2023-05-21T09:20:23;101429.16;;;27.76;38.49
51603;BME280;37954;51.980;5.850;2023-05-21T09:24:39;101419.75;;;27.85;38.63
51603;BME280;37954;51.980;5.850;2023-05-21T09:28:56;101422.84;;;28.10;38.22
51603;BME280;37954;51.980;5.850;2023-05-21T09:33:10;101413.78;;;28.35;37.55
51603;BME280;37954;51.980;5.850;2023-05-21T09:37:23;101403.97;;;28.63;37.01
51603;BME280;37954;51.980;5.850;2023-05-21T09:41:41;101404.53;;;29.03;36.44
51603;BME280;37954;51.980;5.850;2023-05-21T09:45:54;101407.56;;;29.10;36.22
51603;BME280;37954;51.980;5.850;2023-05-21T09:50:19;101396.94;;;28.83;36.20
51603;BME280;37954;51.980;5.850;2023-05-21T09:54:32;101405.66;;;29.02;35.89
51603;BME280;37954;51.980;5.850;2023-05-21T09:58:45;101407.47;;;28.98;35.68
51603;BME280;37954;51.980;5.850;2023-05-21T10:02:59;101404.25;;;28.88;36.09
51603;BME280;37954;51.980;5.850;2023-05-21T10:07:12;101397.81;;;28.49;36.22
51603;BME280;37954;51.980;5.850;2023-05-21T10:11:25;101390.59;;;28.91;36.52
51603;BME280;37954;51.980;5.850;2023-05-21T10:15:41;101391.56;;;29.25;36.06
51603;BME280;37954;51.980;5.850;2023-05-21T10:19:55;101396.56;;;29.40;35.75
51603;BME280;37954;51.980;5.850;2023-05-21T10:24:10;101388.63;;;29.80;35.29
51603;BME280;37954;51.980;5.850;2023-05-21T10:28:22;101386.72;;;30.34;34.82
51603;BME280;37954;51.980;5.850;2023-05-21T10:32:34;101386.31;;;30.44;34.11
51603;BME280;37954;51.980;5.850;2023-05-21T10:36:47;101370.56;;;30.36;33.85
51603;BME280;37954;51.980;5.850;2023-05-21T10:41:00;101387.75;;;30.30;34.01
51603;BME280;37954;51.980;5.850;2023-05-21T10:45:30;101373.69;;;30.80;33.95
51603;BME280;37954;51.980;5.850;2023-05-21T10:49:53;101360.13;;;30.66;33.36
51603;BME280;37954;51.980;5.850;2023-05-21T10:54:33;101378.16;;;30.60;33.91
51603;BME280;37954;51.980;5.850;2023-05-21T11:03:13;101362.88;;;31.11;33.28
51603;BME280;37954;51.980;5.850;2023-05-21T11:07:51;101360.63;;;31.05;33.07
51603;BME280;37954;51.980;5.850;2023-05-21T11:12:04;101364.56;;;31.04;33.17
51603;BME280;37954;51.980;5.850;2023-05-21T11:16:22;101353.25;;;30.97;33.22
51603;BME280;37954;51.980;5.850;2023-05-21T11:20:36;101346.25;;;30.66;33.39
51603;BME280;37954;51.980;5.850;2023-05-21T11:24:48;101342.91;;;30.61;33.54
51603;BME280;37954;51.980;5.850;2023-05-21T11:33:16;101349.88;;;31.03;33.26
51603;BME280;37954;51.980;5.850;2023-05-21T11:37:29;101334.13;;;30.83;33.15
51603;BME280;37954;51.980;5.850;2023-05-21T11:41:52;101337.59;;;30.68;33.47
51603;BME280;37954;51.980;5.850;2023-05-21T11:46:04;101326.97;;;30.25;33.76
51603;BME280;37954;51.980;5.850;2023-05-21T11:50:16;101332.72;;;30.20;34.08
51603;BME280;37954;51.980;5.850;2023-05-21T11:54:29;101326.19;;;30.03;34.51
51603;BME280;37954;51.980;5.850;2023-05-21T11:58:47;101322.53;;;29.91;34.78
51603;BME280;37954;51.980;5.850;2023-05-21T12:02:59;101311.59;;;29.94;34.72
51603;BME280;37954;51.980;5.850;2023-05-21T12:07:11;101313.56;;;29.73;35.28
51603;BME280;37954;51.980;5.850;2023-05-21T12:11:26;101299.91;;;29.47;35.56
51603;BME280;37954;51.980;5.850;2023-05-21T12:15:38;101308.06;;;29.23;35.79
51603;BME280;37954;51.980;5.850;2023-05-21T12:19:52;101292.78;;;28.79;36.42
51603;BME280;37954;51.980;5.850;2023-05-21T12:24:04;101290.00;;;28.49;36.92
51603;BME280;37954;51.980;5.850;2023-05-21T12:28:16;101287.66;;;28.60;37.29
51603;BME280;37954;51.980;5.850;2023-05-21T12:32:28;101269.41;;;28.29;37.56
51603;BME280;37954;51.980;5.850;2023-05-21T12:36:41;101286.97;;;28.25;38.11
51603;BME280;37954;51.980;5.850;2023-05-21T12:41:02;101277.72;;;28.12;38.33
51603;BME280;37954;51.980;5.850;2023-05-21T12:45:15;101288.06;;;28.41;38.90
51603;BME280;37954;51.980;5.850;2023-05-21T12:49:39;101275.53;;;28.44;38.35
51603;BME280;37954;51.980;5.850;2023-05-21T12:53:51;101255.41;;;28.34;38.68
51603;BME280;37954;51.980;5.850;2023-05-21T12:58:04;101241.31;;;28.10;38.93
51603;BME280;37954;51.980;5.850;2023-05-21T13:02:23;101250.72;;;28.09;39.03
51603;BME280;37954;51.980;5.850;2023-05-21T13:06:42;101258.09;;;27.79;39.61
51603;BME280;37954;51.980;5.850;2023-05-21T13:10:54;101251.28;;;27.59;40.01
51603;BME280;37954;51.980;5.850;2023-05-21T13:15:06;101251.09;;;27.47;40.30
51603;BME280;37954;51.980;5.850;2023-05-21T13:19:18;101241.88;;;27.52;40.74
51603;BME280;37954;51.980;5.850;2023-05-21T13:23:30;101259.06;;;27.49;40.94
51603;BME280;37954;51.980;5.850;2023-05-21T13:27:42;101262.50;;;27.63;41.22
51603;BME280;37954;51.980;5.850;2023-05-21T13:31:53;101257.94;;;27.76;41.03
51603;BME280;37954;51.980;5.850;2023-05-21T13:36:05;101269.78;;;28.02;41.12
51603;BME280;37954;51.980;5.850;2023-05-21T13:40:17;101247.69;;;28.02;40.68
51603;BME280;37954;51.980;5.850;2023-05-21T13:44:29;101247.50;;;27.90;40.63
51603;BME280;37954;51.980;5.850;2023-05-21T13:48:43;101258.56;;;27.90;40.59
51603;BME280;37954;51.980;5.850;2023-05-21T13:52:55;101239.41;;;27.76;41.55
51603;BME280;37954;51.980;5.850;2023-05-21T13:57:07;101244.94;;;27.85;41.72
51603;BME280;37954;51.980;5.850;2023-05-21T14:01:18;101248.03;;;27.83;41.27
51603;BME280;37954;51.980;5.850;2023-05-21T14:05:30;101239.75;;;27.75;40.57
51603;BME280;37954;51.980;5.850;2023-05-21T14:09:42;101248.03;;;27.75;41.04
51603;BME280;37954;51.980;5.850;2023-05-21T14:13:54;101243.34;;;27.58;40.59
51603;BME280;37954;51.980;5.850;2023-05-21T14:18:05;101248.03;;;27.49;41.16
51603;BME280;37954;51.980;5.850;2023-05-21T14:22:20;101244.63;;;27.52;40.99
51603;BME280;37954;51.980;5.850;2023-05-21T14:26:32;101251.91;;;27.39;41.48
51603;BME280;37954;51.980;5.850;2023-05-21T14:30:44;101250.78;;;27.40;41.40
51603;BME280;37954;51.980;5.850;2023-05-21T14:34:56;101259.84;;;27.15;41.58
51603;BME280;37954;51.980;5.850;2023-05-21T14:39:07;101247.34;;;27.00;42.08
51603;BME280;37954;51.980;5.850;2023-05-21T14:43:19;101233.94;;;26.85;42.60
51603;BME280;37954;51.980;5.850;2023-05-21T14:47:31;101248.53;;;26.85;42.67
51603;BME280;37954;51.980;5.850;2023-05-21T14:51:43;101236.81;;;26.71;42.52
51603;BME280;37954;51.980;5.850;2023-05-21T14:55:55;101236.50;;;26.73;42.69
51603;BME280;37954;51.980;5.850;2023-05-21T15:00:07;101239.75;;;26.66;42.99
51603;BME280;37954;51.980;5.850;2023-05-21T15:04:19;101228.22;;;26.64;43.13
51603;BME280;37954;51.980;5.850;2023-05-21T15:08:30;101235.25;;;26.79;43.24
51603;BME280;37954;51.980;5.850;2023-05-21T15:12:42;101225.66;;;26.85;43.22
51603;BME280;37954;51.980;5.850;2023-05-21T15:16:54;101213.81;;;26.84;43.26
51603;BME280;37954;51.980;5.850;2023-05-21T15:21:06;101209.56;;;26.69;43.18
51603;BME280;37954;51.980;5.850;2023-05-21T15:25:17;101206.00;;;26.60;43.23
51603;BME280;37954;51.980;5.850;2023-05-21T15:29:30;101205.31;;;26.55;43.96
51603;BME280;37954;51.980;5.850;2023-05-21T15:33:42;101173.00;;;26.38;44.14
51603;BME280;37954;51.980;5.850;2023-05-21T15:37:53;101184.84;;;26.39;44.79
51603;BME280;37954;51.980;5.850;2023-05-21T15:42:05;101185.63;;;26.30;44.98
51603;BME280;37954;51.980;5.850;2023-05-21T15:46:17;101186.47;;;26.40;44.80
51603;BME280;37954;51.980;5.850;2023-05-21T15:50:29;101180.44;;;26.29;44.79
51603;BME280;37954;51.980;5.850;2023-05-21T15:54:40;101182.81;;;26.22;45.10
51603;BME280;37954;51.980;5.850;2023-05-21T15:58:52;101181.19;;;26.21;45.13
51603;BME280;37954;51.980;5.850;2023-05-21T16:03:04;101187.09;;;26.06;45.42
51603;BME280;37954;51.980;5.850;2023-05-21T16:07:16;101186.91;;;26.02;45.51
51603;BME280;37954;51.980;5.850;2023-05-21T16:11:28;101179.13;;;25.95;45.59
51603;BME280;37954;51.980;5.850;2023-05-21T16:15:40;101175.19;;;25.88;45.55
51603;BME280;37954;51.980;5.850;2023-05-21T16:19:52;101187.13;;;25.83;46.50
51603;BME280;37954;51.980;5.850;2023-05-21T16:24:03;101202.28;;;25.94;45.94
51603;BME280;37954;51.980;5.850;2023-05-21T16:28:16;101194.03;;;25.72;45.97
51603;BME280;37954;51.980;5.850;2023-05-21T16:32:27;101195.97;;;25.72;45.85
51603;BME280;37954;51.980;5.850;2023-05-21T16:36:39;101188.66;;;25.67;45.93
51603;BME280;37954;51.980;5.850;2023-05-21T16:40:51;101195.97;;;25.72;45.96
51603;BME280;37954;51.980;5.850;2023-05-21T16:45:03;101195.22;;;25.80;46.04
51603;BME280;37954;51.980;5.850;2023-05-21T16:49:15;101188.41;;;25.77;45.98
51603;BME280;37954;51.980;5.850;2023-05-21T16:53:27;101190.34;;;25.77;46.24
51603;BME280;37954;51.980;5.850;2023-05-21T16:57:39;101191.28;;;25.72;46.42
51603;BME280;37954;51.980;5.850;2023-05-21T17:01:50;101203.09;;;25.73;46.36
51603;BME280;37954;51.980;5.850;2023-05-21T17:06:02;101185.31;;;25.56;46.59
51603;BME280;37954;51.980;5.850;2023-05-21T17:10:14;101201.00;;;25.56;46.52
51603;BME280;37954;51.980;5.850;2023-05-21T17:14:26;101192.69;;;25.47;46.54
51603;BME280;37954;51.980;5.850;2023-05-21T17:18:45;101221.31;;;25.46;46.48
51603;BME280;37954;51.980;5.850;2023-05-21T17:22:57;101221.56;;;25.36;47.03
51603;BME280;37954;51.980;5.850;2023-05-21T17:27:08;101225.25;;;25.31;47.12
51603;BME280;37954;51.980;5.850;2023-05-21T17:31:21;101205.63;;;25.24;47.00
51603;BME280;37954;51.980;5.850;2023-05-21T17:35:32;101206.66;;;25.15;47.65
51603;BME280;37954;51.980;5.850;2023-05-21T17:39:45;101209.63;;;25.05;48.10
51603;BME280;37954;51.980;5.850;2023-05-21T17:43:57;101209.75;;;25.00;48.46
51603;BME280;37954;51.980;5.850;2023-05-21T17:48:09;101209.03;;;24.94;48.51
51603;BME280;37954;51.980;5.850;2023-05-21T17:52:22;101216.88;;;24.87;49.04
51603;BME280;37954;51.980;5.850;2023-05-21T17:56:34;101214.22;;;24.82;49.09
51603;BME280;37954;51.980;5.850;2023-05-21T18:00:49;101217.56;;;24.79;49.23
51603;BME280;37954;51.980;5.850;2023-05-21T18:05:01;101214.66;;;24.75;49.49
51603;BME280;37954;51.980;5.850;2023-05-21T18:09:14;101213.63;;;24.71;49.38
51603;BME280;37954;51.980;5.850;2023-05-21T18:13:28;101208.22;;;24.66;49.81
51603;BME280;37954;51.980;5.850;2023-05-21T18:17:39;101220.25;;;24.56;50.06
51603;BME280;37954;51.980;5.850;2023-05-21T18:21:51;101215.97;;;24.50;50.63
51603;BME280;37954;51.980;5.850;2023-05-21T18:26:03;101213.63;;;24.44;50.82
51603;BME280;37954;51.980;5.850;2023-05-21T18:30:16;101217.69;;;24.33;51.04
51603;BME280;37954;51.980;5.850;2023-05-21T18:34:27;101212.97;;;24.19;51.48
51603;BME280;37954;51.980;5.850;2023-05-21T18:38:39;101209.56;;;24.09;51.90
51603;BME280;37954;51.980;5.850;2023-05-21T18:42:51;101201.84;;;23.97;52.04
51603;BME280;37954;51.980;5.850;2023-05-21T18:47:03;101206.00;;;23.94;52.27
51603;BME280;37954;51.980;5.850;2023-05-21T18:51:15;101203.44;;;23.84;52.89
51603;BME280;37954;51.980;5.850;2023-05-21T18:55:27;101197.81;;;23.76;52.86
51603;BME280;37954;51.980;5.850;2023-05-21T18:59:38;101193.63;;;23.65;53.19
51603;BME280;37954;51.980;5.850;2023-05-21T19:03:51;101199.47;;;23.58;53.61
51603;BME280;37954;51.980;5.850;2023-05-21T19:08:03;101196.59;;;23.49;53.98
51603;BME280;37954;51.980;5.850;2023-05-21T19:12:14;101195.59;;;23.40;54.38
51603;BME280;37954;51.980;5.850;2023-05-21T19:16:26;101200.44;;;23.30;54.69
51603;BME280;37954;51.980;5.850;2023-05-21T19:20:38;101200.91;;;23.18;54.92
51603;BME280;37954;51.980;5.850;2023-05-21T19:24:50;101200.44;;;23.11;55.33
51603;BME280;37954;51.980;5.850;2023-05-21T19:29:02;101195.75;;;22.92;55.63
51603;BME280;37954;51.980;5.850;2023-05-21T19:33:14;101192.28;;;22.87;56.21
51603;BME280;37954;51.980;5.850;2023-05-21T19:37:26;101200.34;;;22.78;56.56
51603;BME280;37954;51.980;5.850;2023-05-21T19:41:38;101204.59;;;22.66;56.79
51603;BME280;37954;51.980;5.850;2023-05-21T19:45:49;101206.91;;;22.53;57.22
51603;BME280;37954;51.980;5.850;2023-05-21T19:50:02;101211.34;;;22.49;57.60
51603;BME280;37954;51.980;5.850;2023-05-21T19:54:14;101205.97;;;22.39;57.87
51603;BME280;37954;51.980;5.850;2023-05-21T19:58:25;101206.63;;;22.31;57.92
51603;BME280;37954;51.980;5.850;2023-05-21T20:02:40;101218.72;;;22.25;58.73
51603;BME280;37954;51.980;5.850;2023-05-21T20:06:51;101214.47;;;22.14;59.27
51603;BME280;37954;51.980;5.850;2023-05-21T20:11:03;101211.28;;;22.02;59.38
51603;BME280;37954;51.980;5.850;2023-05-21T20:15:15;101215.69;;;21.98;59.69
51603;BME280;37954;51.980;5.850;2023-05-21T20:19:28;101216.06;;;21.86;60.01
51603;BME280;37954;51.980;5.850;2023-05-21T20:23:40;101219.41;;;21.78;60.57
51603;BME280;37954;51.980;5.850;2023-05-21T20:27:52;101221.19;;;21.64;61.34
51603;BME280;37954;51.980;5.850;2023-05-21T20:32:04;101219.59;;;21.52;61.34
51603;BME280;37954;51.980;5.850;2023-05-21T20:36:16;101219.97;;;21.41;61.70
51603;BME280;37954;51.980;5.850;2023-05-21T20:40:28;101209.63;;;21.33;62.27
51603;BME280;37954;51.980;5.850;2023-05-21T20:44:40;101205.34;;;21.22;62.55
51603;BME280;37954;51.980;5.850;2023-05-21T20:48:51;101198.56;;;21.09;63.28
51603;BME280;37954;51.980;5.850;2023-05-21T20:53:03;101204.09;;;20.94;63.63
51603;BME280;37954;51.980;5.850;2023-05-21T20:57:15;101199.53;;;20.74;64.74
51603;BME280;37954;51.980;5.850;2023-05-21T21:01:27;101206.72;;;20.60;65.55
51603;BME280;37954;51.980;5.850;2023-05-21T21:05:41;101205.94;;;20.39;66.98
51603;BME280;37954;51.980;5.850;2023-05-21T21:09:53;101202.09;;;20.30;67.20
51603;BME280;37954;51.980;5.850;2023-05-21T21:14:04;101202.69;;;20.22;68.03
51603;BME280;37954;51.980;5.850;2023-05-21T21:18:16;101199.72;;;20.08;68.61
51603;BME280;37954;51.980;5.850;2023-05-21T21:22:29;101207.06;;;19.97;69.46
51603;BME280;37954;51.980;5.850;2023-05-21T21:26:41;101219.38;;;19.90;69.54
51603;BME280;37954;51.980;5.850;2023-05-21T21:30:52;101209.56;;;19.89;69.99
51603;BME280;37954;51.980;5.850;2023-05-21T21:35:04;101204.09;;;19.84;70.25
51603;BME280;37954;51.980;5.850;2023-05-21T21:39:16;101202.72;;;19.76;70.87
51603;BME280;37954;51.980;5.850;2023-05-21T21:43:28;101204.66;;;19.70;71.40
51603;BME280;37954;51.980;5.850;2023-05-21T21:47:40;101217.44;;;19.65;71.78
51603;BME280;37954;51.980;5.850;2023-05-21T21:51:51;101202.47;;;19.52;72.50
51603;BME280;37954;51.980;5.850;2023-05-21T21:56:08;101199.97;;;19.45;72.54
51603;BME280;37954;51.980;5.850;2023-05-21T22:00:19;101185.78;;;19.33;73.41
51603;BME280;37954;51.980;5.850;2023-05-21T22:04:31;101194.19;;;19.27;73.78
51603;BME280;37954;51.980;5.850;2023-05-21T22:08:43;101182.22;;;19.18;74.40
51603;BME280;37954;51.980;5.850;2023-05-21T22:12:55;101188.47;;;19.18;74.78